Time;durP1;ratioP1;P1;durP2;ratioP2;P2;SDS_P1;SDS_P2;PMS_P1;PMS_P2;Temp;Humidity;BMP_temperature;BMP_pressure;BME280_temperature;BME280_humidity;BME280_pressure;Samples;Min_cycle;Max_cycle;Signal;HPM_P1;HPM_P2
2023/07/26 00:02:02;;;;;;;;;;;;;;;;;;5097039;28;19924;-93
2023/07/26 00:04:28;;;;;;;;;;;;;;;;;;5096969;28;19972;-93
2023/07/26 00:06:54;;;;;;;;;;;;;;;;;;5113923;28;20018;-92
2023/07/26 00:09:20;;;;;;;;;;;;;;;;;;5113469;28;19920;-93
2023/07/26 00:11:49;;;;;;;;;;;;;;;;;;5113937;28;19947;-92
2023/07/26 00:14:15;;;;;;;;;;;;;;;;;;5096581;28;19943;-93
2023/07/26 00:16:41;;;;;;;;;;;;;;;;;;5096537;28;20324;-92
2023/07/26 00:19:06;;;;;;;;;;;;;;;;;;5112431;28;20402;-91
2023/07/26 00:21:32;;;;;;;;;;;;;;;;;;5096248;28;20010;-92
2023/07/26 00:23:59;;;;;;;;;;;;;;;;;;5112960;28;20017;-92
2023/07/26 00:26:25;;;;;;;;;;;;;;;;;;5113259;28;20014;-91
2023/07/26 00:28:51;;;;;;;;;;;;;;;;;;5113076;28;19920;-91
2023/07/26 00:31:17;;;;;;;;;;;;;;;;;;5112980;28;19919;-91
2023/07/26 00:33:43;;;;;;;;;;;;;;;;;;5095992;28;19923;-92
2023/07/26 00:36:09;;;;;;;;;;;;;;;;;;5113315;28;19919;-92
2023/07/26 00:38:35;;;;;;;;;;;;;;;;;;5112862;28;19923;-91
2023/07/26 00:41:01;;;;;;;;;;;;;;;;;;5095918;28;19923;-93
2023/07/26 00:43:27;;;;;;;;;;;;;;;;;;5114014;28;19919;-92
2023/07/26 00:45:53;;;;;;;;;;;;;;;;;;5112913;28;19920;-92
2023/07/26 00:48:18;;;;;;;;;;;;;;;;;;5095524;28;20028;-93
2023/07/26 00:50:45;;;;;;;;;;;;;;;;;;5096264;28;19924;-94
2023/07/26 00:53:11;;;;;;;;;;;;;;;;;;5096665;28;19920;-94
2023/07/26 00:55:37;;;;;;;;;;;;;;;;;;5096308;28;19924;-94
2023/07/26 00:58:03;;;;;;;;;;;;;;;;;;5096073;28;19919;-94
2023/07/26 01:00:29;;;;;;;;;;;;;;;;;;5095292;28;19967;-94
2023/07/26 01:02:55;;;;;;;;;;;;;;;;;;5112986;28;20285;-93
2023/07/26 01:05:22;;;;;;;;;;;;;;;;;;5112277;28;19935;-94
2023/07/26 01:07:48;;;;;;;;;;;;;;;;;;5112378;28;19926;-95
2023/07/26 01:10:16;;;;;;;;;;;;;;;;;;5113393;28;19924;-95
2023/07/26 01:12:42;;;;;;;;;;;;;;;;;;5095668;28;19920;-93
2023/07/26 01:15:08;;;;;;;;;;;;;;;;;;5095626;28;19927;-93
2023/07/26 01:17:34;;;;;;;;;;;;;;;;;;5095408;28;19920;-93
2023/07/26 01:20:00;;;;;;;;;;;;;;;;;;5095481;28;19930;-92
2023/07/26 01:22:26;;;;;;;;;;;;;;;;;;5095467;28;20278;-91
2023/07/26 01:24:51;;;;;;;;;;;;;;;;;;5094987;28;20014;-92
2023/07/26 01:27:17;;;;;;;;;;;;;;;;;;5113349;28;19919;-92
2023/07/26 01:29:43;;;;;;;;;;;;;;;;;;5094433;28;20340;-92
2023/07/26 01:32:09;;;;;;;;;;;;;;;;;;5112154;28;19920;-91
2023/07/26 01:34:35;;;;;;;;;;;;;;;;;;5112115;28;19923;-91
2023/07/26 01:37:01;;;;;;;;;;;;;;;;;;5111952;28;20293;-91
2023/07/26 01:39:27;;;;;;;;;;;;;;;;;;5112157;28;19968;-92
2023/07/26 01:41:53;;;;;;;;;;;;;;;;;;5094932;28;19920;-90
2023/07/26 01:44:19;;;;;;;;;;;;;;;;;;5111637;28;20401;-90
2023/07/26 01:46:45;;;;;;;;;;;;;;;;;;5111948;28;19961;-91
2023/07/26 01:49:11;;;;;;;;;;;;;;;;;;5111709;28;20008;-91
2023/07/26 01:51:37;;;;;;;;;;;;;;;;;;5112144;28;19963;-92
2023/07/26 01:54:02;;;;;;;;;;;;;;;;;;5094946;28;20007;-91
2023/07/26 01:56:28;;;;;;;;;;;;;;;;;;5111423;28;19934;-91
2023/07/26 01:58:54;;;;;;;;;;;;;;;;;;5111492;28;19930;-93
2023/07/26 02:01:20;;;;;;;;;;;;;;;;;;5094842;28;19979;-93
2023/07/26 02:03:46;;;;;;;;;;;;;;;;;;5094384;28;20129;-93
2023/07/26 02:06:12;;;;;;;;;;;;;;;;;;5111715;28;20006;-92
2023/07/26 02:08:38;;;;;;;;;;;;;;;;;;5094841;28;19920;-92
2023/07/26 02:11:04;;;;;;;;;;;;;;;;;;5094819;28;19974;-91
2023/07/26 02:13:30;;;;;;;;;;;;;;;;;;5111218;28;19980;-91
2023/07/26 02:15:56;;;;;;;;;;;;;;;;;;5094414;28;19926;-92
2023/07/26 02:18:23;;;;;;;;;;;;;;;;;;5111197;28;19920;-91
2023/07/26 02:20:49;;;;;;;;;;;;;;;;;;5111338;28;20373;-91
2023/07/26 02:23:15;;;;;;;;;;;;;;;;;;5112622;28;19923;-91
2023/07/26 02:25:40;;;;;;;;;;;;;;;;;;5094198;28;19920;-91
2023/07/26 02:28:06;;;;;;;;;;;;;;;;;;5112298;28;19923;-90
2023/07/26 02:30:32;;;;;;;;;;;;;;;;;;5111420;28;19920;-91
2023/07/26 02:32:58;;;;;;;;;;;;;;;;;;5112579;28;19943;-91
2023/07/26 02:35:24;;;;;;;;;;;;;;;;;;5094534;28;20120;-92
2023/07/26 02:37:50;;;;;;;;;;;;;;;;;;5094536;28;20305;-91
2023/07/26 02:40:16;;;;;;;;;;;;;;;;;;5111113;28;20285;-91
2023/07/26 02:42:43;;;;;;;;;;;;;;;;;;5113880;28;19963;-91
2023/07/26 02:45:09;;;;;;;;;;;;;;;;;;5115304;28;20363;-92
2023/07/26 02:47:35;;;;;;;;;;;;;;;;;;5098087;28;19931;-92
2023/07/26 02:50:03;;;;;;;;;;;;;;;;;;5115356;28;20389;-92
2023/07/26 02:52:29;;;;;;;;;;;;;;;;;;5098406;28;19974;-93
2023/07/26 02:54:55;;;;;;;;;;;;;;;;;;5115187;28;20251;-92
2023/07/26 02:57:21;;;;;;;;;;;;;;;;;;5114895;28;20437;-92
2023/07/26 02:59:47;;;;;;;;;;;;;;;;;;5098001;28;19928;-92
2023/07/26 03:02:13;;;;;;;;;;;;;;;;;;5114710;28;19920;-91
2023/07/26 03:04:39;;;;;;;;;;;;;;;;;;5114451;28;19972;-91
2023/07/26 03:07:05;;;;;;;;;;;;;;;;;;5113901;28;20007;-91
2023/07/26 03:09:31;;;;;;;;;;;;;;;;;;5097910;28;20310;-91
2023/07/26 03:11:57;;;;;;;;;;;;;;;;;;5114652;28;20374;-91
2023/07/26 03:14:23;;;;;;;;;;;;;;;;;;5097821;28;19978;-91
2023/07/26 03:16:48;;;;;;;;;;;;;;;;;;5097338;28;19972;-91
2023/07/26 03:19:14;;;;;;;;;;;;;;;;;;5097477;28;19931;-91
2023/07/26 03:21:41;;;;;;;;;;;;;;;;;;5097316;28;19949;-92
2023/07/26 03:24:06;;;;;;;;;;;;;;;;;;5114603;28;20014;-91
2023/07/26 03:26:32;;;;;;;;;;;;;;;;;;5097034;28;20026;-91
2023/07/26 03:28:58;;;;;;;;;;;;;;;;;;5114066;28;19919;-91
2023/07/26 03:31:24;;;;;;;;;;;;;;;;;;5114539;28;20019;-91
2023/07/26 03:33:50;;;;;;;;;;;;;;;;;;5114196;28;20391;-91
2023/07/26 03:36:16;;;;;;;;;;;;;;;;;;5114283;28;19930;-92
2023/07/26 03:38:42;;;;;;;;;;;;;;;;;;5114210;28;19942;-91
2023/07/26 03:41:08;;;;;;;;;;;;;;;;;;5096749;28;20298;-91
2023/07/26 03:43:34;;;;;;;;;;;;;;;;;;5115186;28;19927;-91
2023/07/26 03:46:00;;;;;;;;;;;;;;;;;;5114943;28;19920;-91
2023/07/26 03:48:26;;;;;;;;;;;;;;;;;;5114838;28;20018;-91
2023/07/26 03:50:52;;;;;;;;;;;;;;;;;;5114552;28;20002;-92
2023/07/26 03:53:18;;;;;;;;;;;;;;;;;;5115231;28;20492;-92
2023/07/26 03:55:44;;;;;;;;;;;;;;;;;;5096674;28;19997;-91
2023/07/26 03:58:10;;;;;;;;;;;;;;;;;;5096619;28;19965;-92
2023/07/26 04:00:36;;;;;;;;;;;;;;;;;;5097936;28;19924;-92
2023/07/26 04:03:03;;;;;;;;;;;;;;;;;;5114866;28;19927;-92
2023/07/26 04:05:29;;;;;;;;;;;;;;;;;;5116043;28;19919;-92
2023/07/26 04:07:55;;;;;;;;;;;;;;;;;;5115306;28;19923;-93
2023/07/26 04:10:21;;;;;;;;;;;;;;;;;;5098732;28;19983;-91
2023/07/26 04:12:47;;;;;;;;;;;;;;;;;;5115273;28;19920;-91
2023/07/26 04:15:14;;;;;;;;;;;;;;;;;;5097487;28;19919;-92
2023/07/26 04:17:40;;;;;;;;;;;;;;;;;;5097143;28;20014;-92
2023/07/26 04:20:05;;;;;;;;;;;;;;;;;;5096730;28;20057;-93
2023/07/26 04:22:31;;;;;;;;;;;;;;;;;;5096401;28;19931;-93
2023/07/26 04:24:57;;;;;;;;;;;;;;;;;;5096965;28;19920;-91
2023/07/26 04:27:23;;;;;;;;;;;;;;;;;;5096523;28;19920;-92
2023/07/26 04:29:49;;;;;;;;;;;;;;;;;;5113460;28;19919;-91
2023/07/26 04:32:15;;;;;;;;;;;;;;;;;;5096886;28;19970;-92
2023/07/26 04:34:41;;;;;;;;;;;;;;;;;;5113701;28;19920;-92
2023/07/26 04:37:07;;;;;;;;;;;;;;;;;;5113932;28;19923;-91
2023/07/26 04:39:33;;;;;;;;;;;;;;;;;;5113363;28;19928;-91
2023/07/26 04:41:59;;;;;;;;;;;;;;;;;;5114515;28;19923;-92
2023/07/26 04:44:25;;;;;;;;;;;;;;;;;;5112962;28;20101;-92
2023/07/26 04:46:50;;;;;;;;;;;;;;;;;;5096293;28;19958;-92
2023/07/26 04:49:16;;;;;;;;;;;;;;;;;;5113441;28;20386;-93
2023/07/26 04:51:42;;;;;;;;;;;;;;;;;;5113389;28;20080;-92
2023/07/26 04:54:08;;;;;;;;;;;;;;;;;;5095991;28;19938;-92
2023/07/26 04:56:34;;;;;;;;;;;;;;;;;;5095725;28;19924;-92
2023/07/26 04:59:00;;;;;;;;;;;;;;;;;;5113731;28;19967;-94
2023/07/26 05:01:26;;;;;;;;;;;;;;;;;;5114508;28;19931;-93
2023/07/26 05:03:52;;;;;;;;;;;;;;;;;;5096666;28;19923;-88
2023/07/26 05:06:18;;;;;;;;;;;;;;;;;;5113394;28;19920;-93
2023/07/26 05:08:44;;;;;;;;;;;;;;;;;;5113420;28;19973;-93
2023/07/26 05:11:10;;;;;;;;;;;;;;;;;;5095771;28;19946;-92
2023/07/26 05:13:36;;;;;;;;;;;;;;;;;;5095407;28;19927;-91
2023/07/26 05:16:02;;;;;;;;;;;;;;;;;;5095412;28;19920;-93
2023/07/26 05:18:28;;;;;;;;;;;;;;;;;;5095532;28;19919;-91
2023/07/26 05:20:53;;;;;;;;;;;;;;;;;;5112000;28;19923;-91
2023/07/26 05:23:19;;;;;;;;;;;;;;;;;;5094988;28;20244;-91
2023/07/26 05:25:45;;;;;;;;;;;;;;;;;;5095228;28;20223;-91
2023/07/26 05:28:11;;;;;;;;;;;;;;;;;;5111950;28;19924;-92
2023/07/26 05:30:37;;;;;;;;;;;;;;;;;;5095363;28;19920;-91
2023/07/26 05:33:03;;;;;;;;;;;;;;;;;;5095121;28;20047;-92
2023/07/26 05:35:29;;;;;;;;;;;;;;;;;;5112262;28;19948;-92
2023/07/26 05:37:55;;;;;;;;;;;;;;;;;;5094957;28;20333;-93
2023/07/26 05:40:21;;;;;;;;;;;;;;;;;;5114014;28;19928;-94
2023/07/26 05:42:47;;;;;;;;;;;;;;;;;;5112895;28;20453;-94
2023/07/26 05:45:13;;;;;;;;;;;;;;;;;;5095513;28;19967;-92
2023/07/26 05:47:39;;;;;;;;;;;;;;;;;;5112393;28;19920;-93
2023/07/26 05:50:06;;;;;;;;;;;;;;;;;;5095547;28;19924;-93
2023/07/26 05:52:32;;;;;;;;;;;;;;;;;;5113091;28;19919;-94
2023/07/26 05:54:58;;;;;;;;;;;;;;;;;;5113653;28;19927;-93
2023/07/26 05:57:23;;;;;;;;;;;;;;;;;;5112464;28;19926;-92
2023/07/26 05:59:49;;;;;;;;;;;;;;;;;;5112885;28;19923;-94
2023/07/26 06:02:15;;;;;;;;;;;;;;;;;;5112489;28;19919;-93
2023/07/26 06:04:41;;;;;;;;;;;;;;;;;;5095619;28;20022;-92
2023/07/26 06:07:07;;;;;;;;;;;;;;;;;;5112382;28;19962;-92
2023/07/26 06:09:36;;;;;;;;;;;;;;;;;;5112246;28;20402;-93
2023/07/26 06:12:02;;;;;;;;;;;;;;;;;;5095311;28;19926;-92
2023/07/26 06:14:28;;;;;;;;;;;;;;;;;;5112795;28;19923;-91
2023/07/26 06:16:54;;;;;;;;;;;;;;;;;;5113578;28;19967;-91
2023/07/26 06:19:20;;;;;;;;;;;;;;;;;;5098648;28;19931;-91
2023/07/26 06:21:46;;;;;;;;;;;;;;;;;;5085943;28;19927;-91
2023/07/26 06:24:12;;;;;;;;;;;;;;;;;;5077634;28;19920;-89
2023/07/26 06:26:38;;;;;;;;;;;;;;;;;;5094523;28;20117;-89
2023/07/26 06:29:04;;;;;;;;;;;;;;;;;;5111567;28;20240;-91
2023/07/26 06:31:30;;;;;;;;;;;;;;;;;;5097715;28;19919;-90
2023/07/26 06:33:56;;;;;;;;;;;;;;;;;;5115076;28;20334;-89
2023/07/26 06:36:22;;;;;;;;;;;;;;;;;;5114936;28;19973;-90
2023/07/26 06:38:48;;;;;;;;;;;;;;;;;;5116427;28;20350;-89
2023/07/26 06:41:14;;;;;;;;;;;;;;;;;;5115329;28;19923;-88
2023/07/26 06:43:40;;;;;;;;;;;;;;;;;;5117436;28;19959;-90
2023/07/26 06:46:06;;;;;;;;;;;;;;;;;;5115821;28;19959;-89
2023/07/26 06:48:32;;;;;;;;;;;;;;;;;;5098337;28;19996;-89
2023/07/26 06:50:58;;;;;;;;;;;;;;;;;;5116832;28;19927;-88
2023/07/26 06:53:24;;;;;;;;;;;;;;;;;;5114646;28;20026;-88
2023/07/26 06:55:50;;;;;;;;;;;;;;;;;;5114460;28;19978;-88
2023/07/26 06:58:16;;;;;;;;;;;;;;;;;;5098229;28;20075;-92
2023/07/26 07:00:42;;;;;;;;;;;;;;;;;;5115573;28;20083;-90
2023/07/26 07:03:08;;;;;;;;;;;;;;;;;;5116099;28;19942;-90
2023/07/26 07:05:35;;;;;;;;;;;;;;;;;;5098952;28;20391;-90
2023/07/26 07:08:02;;;;;;;;;;;;;;;;;;5114891;28;19929;-90
2023/07/26 07:10:28;;;;;;;;;;;;;;;;;;5115298;28;19935;-91
2023/07/26 07:12:54;;;;;;;;;;;;;;;;;;5104227;28;19941;-91
2023/07/26 07:15:19;;;;;;;;;;;;;;;;;;5079547;28;19919;-91
2023/07/26 07:17:45;;;;;;;;;;;;;;;;;;5114358;28;19931;-91
2023/07/26 07:20:11;;;;;;;;;;;;;;;;;;5096818;28;19931;-91
2023/07/26 07:22:37;;;;;;;;;;;;;;;;;;5115591;28;19920;-91
2023/07/26 07:25:03;;;;;;;;;;;;;;;;;;5098203;28;19919;-91
2023/07/26 07:27:29;;;;;;;;;;;;;;;;;;5096742;28;19974;-91
2023/07/26 07:29:55;;;;;;;;;;;;;;;;;;5115529;28;20455;-90
2023/07/26 07:32:21;;;;;;;;;;;;;;;;;;5096590;28;19920;-91
2023/07/26 07:34:47;;;;;;;;;;;;;;;;;;5115535;28;19942;-90
2023/07/26 07:37:13;;;;;;;;;;;;;;;;;;5096581;28;20267;-91
2023/07/26 07:39:39;;;;;;;;;;;;;;;;;;5113648;28;19923;-91
2023/07/26 07:42:05;;;;;;;;;;;;;;;;;;5114766;28;19923;-90
2023/07/26 07:44:31;;;;;;;;;;;;;;;;;;5113891;28;19920;-90
2023/07/26 07:46:57;;;;;;;;;;;;;;;;;;5113529;28;19920;-88
2023/07/26 07:49:22;;;;;;;;;;;;;;;;;;5096684;28;19920;-88
2023/07/26 07:51:48;;;;;;;;;;;;;;;;;;5114470;28;19919;-89
2023/07/26 07:54:14;;;;;;;;;;;;;;;;;;5096200;28;20334;-90
2023/07/26 07:56:40;;;;;;;;;;;;;;;;;;5112911;28;19923;-88
2023/07/26 07:59:06;;;;;;;;;;;;;;;;;;5114546;28;20007;-89
2023/07/26 08:01:32;;;;;;;;;;;;;;;;;;5112957;28;20384;-89
2023/07/26 08:04:02;;;;;;;;;;;;;;;;;;5113136;28;19920;-90
2023/07/26 08:06:28;;;;;;;;;;;;;;;;;;5114527;28;19920;-90
2023/07/26 08:08:54;;;;;;;;;;;;;;;;;;5113344;28;19972;-90
2023/07/26 08:11:20;;;;;;;;;;;;;;;;;;5095970;28;19920;-90
2023/07/26 08:13:46;;;;;;;;;;;;;;;;;;5095815;28;19919;-91
2023/07/26 08:16:12;;;;;;;;;;;;;;;;;;5115598;28;19923;-93
2023/07/26 08:18:38;;;;;;;;;;;;;;;;;;5113669;28;19972;-89
2023/07/26 08:21:04;;;;;;;;;;;;;;;;;;5112949;28;20018;-90
2023/07/26 08:23:30;;;;;;;;;;;;;;;;;;5112539;28;19924;-89
2023/07/26 08:25:56;;;;;;;;;;;;;;;;;;5095883;28;19920;-90
2023/07/26 08:28:22;;;;;;;;;;;;;;;;;;5095694;28;19926;-90
2023/07/26 08:30:47;;;;;;;;;;;;;;;;;;5112699;28;19942;-90
2023/07/26 08:33:13;;;;;;;;;;;;;;;;;;5112808;28;19920;-91
2023/07/26 08:35:39;;;;;;;;;;;;;;;;;;5112989;28;19920;-89
2023/07/26 08:38:05;;;;;;;;;;;;;;;;;;5094695;28;19966;-90
2023/07/26 08:40:31;;;;;;;;;;;;;;;;;;5112437;28;20006;-89
2023/07/26 08:42:57;;;;;;;;;;;;;;;;;;5112473;28;19923;-91
2023/07/26 08:45:23;;;;;;;;;;;;;;;;;;5113123;28;19924;-91
2023/07/26 08:47:49;;;;;;;;;;;;;;;;;;5095268;28;19927;-88
2023/07/26 08:50:15;;;;;;;;;;;;;;;;;;5114978;28;19931;-93
2023/07/26 08:52:41;;;;;;;;;;;;;;;;;;5112970;28;20010;-91
2023/07/26 08:55:07;;;;;;;;;;;;;;;;;;5112219;28;19973;-90
2023/07/26 08:57:33;;;;;;;;;;;;;;;;;;5095322;28;19919;-90
2023/07/26 08:59:58;;;;;;;;;;;;;;;;;;5095295;28;19924;-90
2023/07/26 09:02:25;;;;;;;;;;;;;;;;;;5095231;28;20057;-91
2023/07/26 09:04:50;;;;;;;;;;;;;;;;;;5095649;28;20383;-92
2023/07/26 09:07:16;;;;;;;;;;;;;;;;;;5095075;28;19987;-92
2023/07/26 09:09:43;;;;;;;;;;;;;;;;;;5075501;28;19923;-92
2023/07/26 09:12:09;;;;;;;;;;;;;;;;;;5108928;28;19977;-91
2023/07/26 09:14:35;;;;;;;;;;;;;;;;;;5091921;28;19932;-91
2023/07/26 09:17:01;;;;;;;;;;;;;;;;;;5093359;28;20061;-91
2023/07/26 09:19:27;;;;;;;;;;;;;;;;;;5092375;28;20074;-91
2023/07/26 09:21:53;;;;;;;;;;;;;;;;;;5092101;28;20354;-92
2023/07/26 09:24:19;;;;;;;;;;;;;;;;;;5092008;28;19975;-92
2023/07/26 09:26:45;;;;;;;;;;;;;;;;;;5092836;28;19924;-89
2023/07/26 09:29:11;;;;;;;;;;;;;;;;;;5091891;28;19924;-91
2023/07/26 09:31:38;;;;;;;;;;;;;;;;;;5125662;27;19927;-90
2023/07/26 09:34:04;;;;;;;;;;;;;;;;;;5104993;28;20429;-91
2023/07/26 09:36:30;;;;;;;;;;;;;;;;;;5096360;28;19919;-90
2023/07/26 09:38:56;;;;;;;;;;;;;;;;;;5112196;28;20381;-91
2023/07/26 09:41:25;;;;;;;;;;;;;;;;;;5111538;28;19923;-90
2023/07/26 09:43:51;;;;;;;;;;;;;;;;;;5095276;28;20247;-91
2023/07/26 09:46:17;;;;;;;;;;;;;;;;;;5112009;28;19931;-93
2023/07/26 09:48:43;;;;;;;;;;;;;;;;;;5080407;28;19920;-91
2023/07/26 09:51:09;;;;;;;;;;;;;;;;;;5110621;28;19921;-89
2023/07/26 09:53:35;;;;;;;;;;;;;;;;;;5115067;28;20348;-90
2023/07/26 09:56:01;;;;;;;;;;;;;;;;;;5096992;28;19973;-90
2023/07/26 09:58:27;;;;;;;;;;;;;;;;;;5129426;27;20023;-90
2023/07/26 10:00:53;;;;;;;;;;;;;;;;;;5112633;28;20022;-90
2023/07/26 10:03:19;;;;;;;;;;;;;;;;;;5096577;28;20310;-90
2023/07/26 10:05:45;;;;;;;;;;;;;;;;;;5129186;27;20018;-89
2023/07/26 10:08:11;;;;;;;;;;;;;;;;;;5094943;28;19970;-89
2023/07/26 10:10:37;;;;;;;;;;;;;;;;;;5094650;28;19940;-90
2023/07/26 10:13:03;;;;;;;;;;;;;;;;;;5128960;27;19920;-90
2023/07/26 10:15:30;;;;;;;;;;;;;;;;;;5111997;28;19920;-88
2023/07/26 10:17:56;;;;;;;;;;;;;;;;;;5111615;28;20080;-89
2023/07/26 10:20:22;;;;;;;;;;;;;;;;;;5094613;28;20412;-90
2023/07/26 10:22:48;;;;;;;;;;;;;;;;;;5111252;28;19993;-89
2023/07/26 10:25:14;;;;;;;;;;;;;;;;;;5111417;28;19920;-89
2023/07/26 10:27:40;;;;;;;;;;;;;;;;;;5096149;28;20441;-89
2023/07/26 10:30:06;;;;;;;;;;;;;;;;;;5112111;28;20401;-91
2023/07/26 10:32:32;;;;;;;;;;;;;;;;;;5095125;28;19920;-90
2023/07/26 10:34:59;;;;;;;;;;;;;;;;;;5115196;28;20290;-91
2023/07/26 10:37:24;;;;;;;;;;;;;;;;;;5114967;28;20180;-90
2023/07/26 10:39:50;;;;;;;;;;;;;;;;;;5097785;28;20087;-90
2023/07/26 10:42:16;;;;;;;;;;;;;;;;;;5114902;28;19927;-88
2023/07/26 10:44:42;;;;;;;;;;;;;;;;;;5115007;28;19923;-88
2023/07/26 10:47:08;;;;;;;;;;;;;;;;;;5097504;28;20271;-88
2023/07/26 10:49:34;;;;;;;;;;;;;;;;;;5114562;28;19920;-88
2023/07/26 10:52:02;;;;;;;;;;;;;;;;;;5114802;28;19927;-87
2023/07/26 10:54:27;;;;;;;;;;;;;;;;;;5114517;28;19923;-87
2023/07/26 10:56:54;;;;;;;;;;;;;;;;;;5114033;28;20459;-88
2023/07/26 10:59:20;;;;;;;;;;;;;;;;;;5097154;28;19920;-87
2023/07/26 11:01:45;;;;;;;;;;;;;;;;;;5115850;28;19967;-88
2023/07/26 11:04:11;;;;;;;;;;;;;;;;;;5114324;28;20286;-88
2023/07/26 11:06:37;;;;;;;;;;;;;;;;;;5114003;28;19920;-89
2023/07/26 11:09:04;;;;;;;;;;;;;;;;;;5096936;28;19923;-88
2023/07/26 11:11:30;;;;;;;;;;;;;;;;;;5097608;28;19920;-88
2023/07/26 11:13:56;;;;;;;;;;;;;;;;;;5114174;28;19926;-89
2023/07/26 11:16:23;;;;;;;;;;;;;;;;;;5113924;28;20010;-88
2023/07/26 11:18:49;;;;;;;;;;;;;;;;;;5114242;28;20333;-88
2023/07/26 11:21:15;;;;;;;;;;;;;;;;;;5114200;28;20030;-89
2023/07/26 11:23:41;;;;;;;;;;;;;;;;;;5114546;28;20321;-90
2023/07/26 11:26:07;;;;;;;;;;;;;;;;;;5097147;28;19924;-89
2023/07/26 11:28:33;;;;;;;;;;;;;;;;;;5114236;28;19989;-89
2023/07/26 11:30:58;;;;;;;;;;;;;;;;;;5115383;28;20018;-89
2023/07/26 11:33:24;;;;;;;;;;;;;;;;;;5113989;28;20235;-89
2023/07/26 11:35:50;;;;;;;;;;;;;;;;;;5113520;28;19926;-88
2023/07/26 11:38:16;;;;;;;;;;;;;;;;;;5113768;28;19926;-89
2023/07/26 11:40:42;;;;;;;;;;;;;;;;;;5113888;28;20005;-89
2023/07/26 11:43:09;;;;;;;;;;;;;;;;;;5113865;28;19969;-90
2023/07/26 11:45:35;;;;;;;;;;;;;;;;;;5096892;28;20333;-89
2023/07/26 11:48:01;;;;;;;;;;;;;;;;;;5114631;28;19919;-89
2023/07/26 11:50:27;;;;;;;;;;;;;;;;;;5113366;28;19935;-88
2023/07/26 11:52:53;;;;;;;;;;;;;;;;;;5113426;28;19924;-91
2023/07/26 11:55:18;;;;;;;;;;;;;;;;;;5097061;28;19928;-88
2023/07/26 11:57:44;;;;;;;;;;;;;;;;;;5094122;28;19981;-89
2023/07/26 12:00:11;;;;;;;;;;;;;;;;;;5112991;28;19931;-89
2023/07/26 12:02:37;;;;;;;;;;;;;;;;;;5096883;28;20317;-89
2023/07/26 12:05:03;;;;;;;;;;;;;;;;;;5096482;28;19920;-88
2023/07/26 12:07:29;;;;;;;;;;;;;;;;;;5092563;28;20022;-88
2023/07/26 12:09:55;;;;;;;;;;;;;;;;;;5126208;27;20002;-88
2023/07/26 12:12:21;;;;;;;;;;;;;;;;;;5076036;28;20024;-90
2023/07/26 12:14:47;;;;;;;;;;;;;;;;;;5075078;28;20032;-88
2023/07/26 12:17:13;;;;;;;;;;;;;;;;;;5092629;28;19927;-87
2023/07/26 12:19:39;;;;;;;;;;;;;;;;;;5094218;28;19920;-88
2023/07/26 12:22:05;;;;;;;;;;;;;;;;;;5094167;28;20339;-88
2023/07/26 12:24:31;;;;;;;;;;;;;;;;;;5092225;28;19920;-88
2023/07/26 12:26:57;;;;;;;;;;;;;;;;;;5092294;28;19931;-89
2023/07/26 12:29:23;;;;;;;;;;;;;;;;;;5092657;28;19920;-88
2023/07/26 12:31:48;;;;;;;;;;;;;;;;;;5092630;28;19967;-89
2023/07/26 12:34:15;;;;;;;;;;;;;;;;;;5075090;28;20019;-89
2023/07/26 12:36:41;;;;;;;;;;;;;;;;;;5109748;28;19939;-91
2023/07/26 12:39:08;;;;;;;;;;;;;;;;;;5080773;28;20000;-91
2023/07/26 12:41:34;;;;;;;;;;;;;;;;;;5109643;28;19974;-91
2023/07/26 12:44:00;;;;;;;;;;;;;;;;;;5094067;28;19920;-91
2023/07/26 12:46:26;;;;;;;;;;;;;;;;;;5092609;28;19927;-90
2023/07/26 12:48:52;;;;;;;;;;;;;;;;;;5108292;28;19919;-91
2023/07/26 12:51:18;;;;;;;;;;;;;;;;;;5075292;28;20026;-88
2023/07/26 12:53:44;;;;;;;;;;;;;;;;;;5091658;28;20015;-90
2023/07/26 12:56:10;;;;;;;;;;;;;;;;;;5091937;28;20039;-91
2023/07/26 12:58:36;;;;;;;;;;;;;;;;;;5093189;28;19920;-90
2023/07/26 13:01:04;;;;;;;;;;;;;;;;;;5092195;28;19924;-90
2023/07/26 13:03:32;;;;;;;;;;;;;;;;;;5075087;28;21811;-91
2023/07/26 13:05:58;;;;;;;;;;;;;;;;;;5108297;28;20003;-90
2023/07/26 13:08:24;;;;;;;;;;;;;;;;;;5093247;28;20001;-90
2023/07/26 13:10:50;;;;;;;;;;;;;;;;;;5109032;28;19920;-87
2023/07/26 13:13:16;;;;;;;;;;;;;;;;;;5087115;28;20015;-88
2023/07/26 13:15:42;;;;;;;;;;;;;;;;;;5092568;28;19920;-87
2023/07/26 13:18:08;;;;;;;;;;;;;;;;;;5091417;28;19920;-87
2023/07/26 13:20:34;;;;;;;;;;;;;;;;;;5108000;28;19978;-87
2023/07/26 13:23:00;;;;;;;;;;;;;;;;;;5091403;28;19963;-89
2023/07/26 13:25:26;;;;;;;;;;;;;;;;;;5125094;27;19988;-89
2023/07/26 13:27:52;;;;;;;;;;;;;;;;;;5091170;28;19978;-89
2023/07/26 13:30:18;;;;;;;;;;;;;;;;;;5108543;28;19920;-89
2023/07/26 13:32:43;;;;;;;;;;;;;;;;;;5091056;28;20021;-88
2023/07/26 13:35:09;;;;;;;;;;;;;;;;;;5092349;28;20031;-89
2023/07/26 13:37:36;;;;;;;;;;;;;;;;;;5090851;28;20061;-89
2023/07/26 13:40:02;;;;;;;;;;;;;;;;;;5090759;28;19932;-89
2023/07/26 13:42:28;;;;;;;;;;;;;;;;;;5091362;28;19920;-89
2023/07/26 13:44:54;;;;;;;;;;;;;;;;;;5107930;28;20375;-89
2023/07/26 13:47:20;;;;;;;;;;;;;;;;;;5107570;28;19927;-86
2023/07/26 13:49:46;;;;;;;;;;;;;;;;;;5090744;28;19926;-85
2023/07/26 13:52:13;;;;;;;;;;;;;;;;;;5124867;28;20021;-86
2023/07/26 13:54:38;;;;;;;;;;;;;;;;;;5090703;28;19928;-87
2023/07/26 13:57:08;;;;;;;;;;;;;;;;;;5107421;28;19947;-87
2023/07/26 13:59:34;;;;;;;;;;;;;;;;;;5124754;28;20371;-89
2023/07/26 14:02:00;;;;;;;;;;;;;;;;;;5125390;28;19921;-89
2023/07/26 14:04:26;;;;;;;;;;;;;;;;;;5091078;28;19927;-88
2023/07/26 14:06:51;;;;;;;;;;;;;;;;;;5090927;28;19920;-88
2023/07/26 14:09:17;;;;;;;;;;;;;;;;;;5090767;28;19936;-89
2023/07/26 14:11:43;;;;;;;;;;;;;;;;;;5090693;28;19982;-88
2023/07/26 14:14:09;;;;;;;;;;;;;;;;;;5090379;28;19920;-89
2023/07/26 14:16:35;;;;;;;;;;;;;;;;;;5090505;28;19924;-88
2023/07/26 14:19:01;;;;;;;;;;;;;;;;;;5107289;28;20288;-88
2023/07/26 14:21:27;;;;;;;;;;;;;;;;;;5091635;28;19924;-89
2023/07/26 14:23:53;;;;;;;;;;;;;;;;;;5090500;28;20359;-87
2023/07/26 14:26:19;;;;;;;;;;;;;;;;;;5124482;28;19928;-88
2023/07/26 14:28:45;;;;;;;;;;;;;;;;;;5090564;28;20516;-89
2023/07/26 14:31:11;;;;;;;;;;;;;;;;;;5090401;28;19994;-89
2023/07/26 14:33:37;;;;;;;;;;;;;;;;;;5091861;28;20068;-88
2023/07/26 14:36:02;;;;;;;;;;;;;;;;;;5091846;28;20261;-90
2023/07/26 14:38:28;;;;;;;;;;;;;;;;;;5110428;28;20290;-91
2023/07/26 14:40:54;;;;;;;;;;;;;;;;;;5094450;28;19924;-90
2023/07/26 14:43:20;;;;;;;;;;;;;;;;;;5128606;27;19923;-90
2023/07/26 14:45:46;;;;;;;;;;;;;;;;;;5127981;27;19967;-89
2023/07/26 14:48:12;;;;;;;;;;;;;;;;;;5093880;28;20030;-89
2023/07/26 14:50:38;;;;;;;;;;;;;;;;;;5128497;27;19973;-89
2023/07/26 14:53:04;;;;;;;;;;;;;;;;;;5093939;28;20007;-89
2023/07/26 14:55:31;;;;;;;;;;;;;;;;;;5093296;28;19924;-89
2023/07/26 14:57:57;;;;;;;;;;;;;;;;;;5128470;27;19920;-92
2023/07/26 15:00:23;;;;;;;;;;;;;;;;;;5111228;28;20386;-91
2023/07/26 15:02:49;;;;;;;;;;;;;;;;;;5128560;27;19939;-90
2023/07/26 15:05:15;;;;;;;;;;;;;;;;;;5093543;28;19956;-90
2023/07/26 15:07:41;;;;;;;;;;;;;;;;;;5127873;27;19928;-90
2023/07/26 15:10:07;;;;;;;;;;;;;;;;;;5128139;27;19920;-91
2023/07/26 15:12:33;;;;;;;;;;;;;;;;;;5128311;27;19993;-92
2023/07/26 15:14:59;;;;;;;;;;;;;;;;;;5110697;28;19924;-92
2023/07/26 15:17:25;;;;;;;;;;;;;;;;;;5111291;28;20229;-91
2023/07/26 15:19:51;;;;;;;;;;;;;;;;;;5128437;27;19992;-91
2023/07/26 15:22:17;;;;;;;;;;;;;;;;;;5111514;28;19924;-92
2023/07/26 15:24:45;;;;;;;;;;;;;;;;;;5133884;27;19924;-93
2023/07/26 15:27:17;;;;;;;;;;;;;;;;;;5112326;28;19922;-91
2023/07/26 15:29:43;;;;;;;;;;;;;;;;;;5094425;28;19920;-93
2023/07/26 15:32:09;;;;;;;;;;;;;;;;;;5094778;28;19921;-92
2023/07/26 15:34:35;;;;;;;;;;;;;;;;;;5110548;28;20291;-91
2023/07/26 15:37:02;;;;;;;;;;;;;;;;;;5094367;28;20015;-91
2023/07/26 15:39:28;;;;;;;;;;;;;;;;;;5127439;27;20295;-89
2023/07/26 15:41:54;;;;;;;;;;;;;;;;;;5092988;28;20019;-91
2023/07/26 15:44:20;;;;;;;;;;;;;;;;;;5110271;28;19927;-90
2023/07/26 15:46:46;;;;;;;;;;;;;;;;;;5093158;28;20007;-89
2023/07/26 15:49:12;;;;;;;;;;;;;;;;;;5108429;28;20430;-89
2023/07/26 15:51:38;;;;;;;;;;;;;;;;;;5093146;28;20011;-88
2023/07/26 15:54:04;;;;;;;;;;;;;;;;;;5093301;28;20029;-89
2023/07/26 15:56:30;;;;;;;;;;;;;;;;;;5109486;28;19932;-88
2023/07/26 15:58:56;;;;;;;;;;;;;;;;;;5094431;28;19920;-88
2023/07/26 16:01:23;;;;;;;;;;;;;;;;;;5126775;27;19931;-88
2023/07/26 16:03:49;;;;;;;;;;;;;;;;;;5126656;27;19920;-89
2023/07/26 16:06:15;;;;;;;;;;;;;;;;;;5092295;28;19924;-88
2023/07/26 16:08:41;;;;;;;;;;;;;;;;;;5093542;28;19973;-88
2023/07/26 16:11:07;;;;;;;;;;;;;;;;;;5109446;28;19920;-88
2023/07/26 16:13:33;;;;;;;;;;;;;;;;;;5092512;28;20356;-87
2023/07/26 16:15:59;;;;;;;;;;;;;;;;;;5126876;27;19931;-87
2023/07/26 16:18:25;;;;;;;;;;;;;;;;;;5094226;28;20011;-90
2023/07/26 16:20:51;;;;;;;;;;;;;;;;;;5109249;28;20518;-89
2023/07/26 16:23:17;;;;;;;;;;;;;;;;;;5093901;28;19927;-89
2023/07/26 16:25:43;;;;;;;;;;;;;;;;;;5092298;28;19924;-89
2023/07/26 16:28:09;;;;;;;;;;;;;;;;;;5092280;28;20010;-91
2023/07/26 16:30:35;;;;;;;;;;;;;;;;;;5091985;28;19980;-91
2023/07/26 16:33:01;;;;;;;;;;;;;;;;;;5126549;27;19926;-90
2023/07/26 16:35:29;;;;;;;;;;;;;;;;;;5109190;28;19920;-90
2023/07/26 16:37:55;;;;;;;;;;;;;;;;;;5092143;28;19974;-90